createdAt,value
2022-12-22T00:02:07.688Z,70.19
2022-12-22T00:04:50.294Z,70.34
2022-12-22T00:07:32.851Z,70.63
2022-12-22T00:10:15.207Z,70.00
2022-12-22T00:12:57.563Z,70.59
2022-12-22T00:15:46.649Z,70.14
2022-12-22T00:18:30.619Z,70.00
2022-12-22T00:21:13.028Z,69.96
2022-12-22T00:23:55.553Z,69.70
2022-12-22T00:26:38.077Z,69.95
2022-12-22T00:29:22.174Z,70.00
2022-12-22T00:32:07.371Z,69.76
2022-12-22T00:34:56.079Z,69.78
2022-12-22T00:37:38.556Z,70.20
2022-12-22T00:40:32.415Z,70.30
2022-12-22T00:43:14.730Z,70.15
2022-12-22T00:45:57.374Z,69.82
2022-12-22T00:48:42.626Z,70.31
2022-12-22T00:51:26.960Z,69.81
2022-12-22T00:54:09.711Z,69.53
2022-12-22T00:56:52.187Z,69.37
2022-12-22T00:59:34.642Z,69.64
2022-12-22T01:02:17.194Z,69.17
2022-12-22T01:05:02.243Z,69.29
2022-12-22T01:07:45.427Z,69.53
2022-12-22T01:10:29.938Z,69.26
2022-12-22T01:13:12.753Z,69.13
2022-12-22T01:15:55.490Z,69.32
2022-12-22T01:18:37.880Z,69.27
2022-12-22T01:21:24.460Z,69.30
2022-12-22T01:24:15.094Z,69.06
2022-12-22T01:27:02.687Z,69.53
2022-12-22T01:29:45.072Z,69.81
2022-12-22T01:32:30.501Z,69.93
2022-12-22T01:35:12.920Z,69.91
2022-12-22T01:37:57.961Z,70.17
2022-12-22T01:40:40.993Z,70.56
2022-12-22T01:43:35.218Z,70.30
2022-12-22T01:46:36.803Z,69.66
2022-12-22T01:49:19.474Z,69.17
2022-12-22T01:52:01.842Z,69.12
2022-12-22T01:54:47.489Z,69.36
2022-12-22T01:57:29.879Z,68.74
2022-12-22T02:00:12.427Z,68.89
2022-12-22T02:02:54.819Z,68.61
2022-12-22T02:05:37.294Z,68.84
2022-12-22T02:08:32.693Z,68.76
2022-12-22T02:11:32.830Z,69.04
2022-12-22T02:14:30.071Z,69.12
2022-12-22T02:17:23.031Z,69.14
2022-12-22T02:20:41.892Z,69.48
2022-12-22T02:23:31.562Z,69.46
2022-12-22T02:26:21.672Z,69.32
2022-12-22T02:29:12.252Z,69.27
2022-12-22T02:31:55.955Z,68.89
2022-12-22T02:34:38.470Z,68.86
2022-12-22T02:37:31.422Z,69.40
2022-12-22T02:40:22.415Z,69.02
2022-12-22T02:43:13.117Z,69.97
2022-12-22T02:46:04.845Z,70.54
2022-12-22T02:48:53.752Z,70.34
2022-12-22T02:51:39.591Z,70.05
2022-12-22T02:54:23.212Z,69.47
2022-12-22T02:57:05.619Z,69.65
2022-12-22T02:59:59.569Z,69.40
2022-12-22T03:02:44.601Z,69.16
2022-12-22T03:05:27.083Z,69.51
2022-12-22T03:08:09.971Z,69.73
2022-12-22T03:10:52.512Z,69.22
2022-12-22T03:13:34.858Z,69.19
2022-12-22T03:16:17.254Z,69.36
2022-12-22T03:19:02.508Z,69.15
2022-12-22T03:21:45.183Z,68.82
2022-12-22T03:24:27.570Z,68.77
2022-12-22T03:26:57.499Z,68.90
2022-12-22T03:29:27.466Z,68.83
2022-12-22T03:31:57.451Z,69.45
2022-12-22T03:34:30.307Z,68.99
2022-12-22T03:37:00.286Z,68.85
2022-12-22T03:39:30.267Z,69.17
2022-12-22T03:42:12.595Z,68.82
2022-12-22T03:44:54.949Z,68.55
2022-12-22T03:47:24.884Z,68.43
2022-12-22T03:49:57.809Z,68.50
2022-12-22T03:52:27.784Z,68.05
2022-12-22T03:54:57.729Z,68.01
2022-12-22T03:57:33.513Z,67.86
2022-12-22T04:00:03.821Z,68.04
2022-12-22T04:02:42.187Z,68.01
2022-12-22T04:05:14.954Z,67.71
2022-12-22T04:07:44.950Z,68.09
2022-12-22T04:10:27.437Z,68.26
2022-12-22T04:12:57.797Z,68.07
2022-12-22T04:15:29.992Z,68.29
2022-12-22T04:18:01.428Z,68.51
2022-12-22T04:20:34.011Z,68.66
2022-12-22T04:23:04.592Z,68.72
2022-12-22T04:25:34.693Z,69.15
2022-12-22T04:28:04.658Z,68.66
2022-12-22T04:30:34.692Z,69.41
2022-12-22T04:33:04.589Z,68.89
2022-12-22T04:35:37.123Z,69.34
2022-12-22T04:38:07.033Z,69.13
2022-12-22T04:40:40.002Z,69.23
2022-12-22T04:43:10.271Z,69.47
2022-12-22T04:45:40.376Z,69.22
2022-12-22T04:48:10.298Z,69.19
2022-12-22T04:50:42.866Z,69.10
2022-12-22T04:53:14.819Z,69.21
2022-12-22T04:55:48.569Z,69.02
2022-12-22T04:58:18.833Z,68.77
2022-12-22T05:00:49.146Z,68.74
2022-12-22T05:03:19.106Z,68.80
2022-12-22T05:05:51.758Z,68.97
2022-12-22T05:08:21.621Z,68.98
2022-12-22T05:10:51.658Z,69.13
2022-12-22T05:13:21.593Z,69.25
2022-12-22T05:15:51.698Z,69.42
2022-12-22T05:18:22.751Z,70.59
2022-12-22T05:20:55.303Z,70.25
2022-12-22T05:23:25.247Z,70.00
2022-12-22T05:25:55.483Z,69.93
2022-12-22T05:28:25.535Z,69.79
2022-12-22T05:30:55.967Z,70.22
2022-12-22T05:33:25.930Z,69.74
2022-12-22T05:35:58.707Z,69.86
2022-12-22T05:38:29.060Z,69.88
2022-12-22T05:41:04.088Z,69.91
2022-12-22T05:43:34.897Z,70.12
2022-12-22T05:46:06.162Z,69.89
2022-12-22T05:48:39.125Z,69.87
2022-12-22T05:51:14.701Z,70.36
2022-12-22T05:53:44.740Z,70.20
2022-12-22T05:56:14.660Z,70.58
2022-12-22T05:58:44.596Z,70.82
2022-12-22T06:01:14.527Z,70.62
2022-12-22T06:03:44.549Z,70.71
2022-12-22T06:06:17.096Z,70.34
2022-12-22T06:08:47.098Z,70.08
2022-12-22T06:11:19.336Z,69.97
2022-12-22T06:13:52.114Z,70.04
2022-12-22T06:16:22.111Z,70.14
2022-12-22T06:18:52.143Z,69.98
2022-12-22T06:21:24.668Z,70.25
2022-12-22T06:23:55.100Z,70.30
2022-12-22T06:26:25.136Z,70.33
2022-12-22T06:28:55.142Z,70.71
2022-12-22T06:31:25.173Z,70.90
2022-12-22T06:33:55.275Z,71.48
2022-12-22T06:36:27.851Z,71.25
2022-12-22T06:38:57.792Z,71.21
2022-12-22T06:41:39.936Z,71.48
2022-12-22T06:44:10.085Z,71.71
2022-12-22T06:46:40.145Z,72.13
2022-12-22T06:49:10.137Z,71.84
2022-12-22T06:51:42.973Z,71.51
2022-12-22T06:54:14.531Z,71.96
2022-12-22T06:56:44.556Z,71.32
2022-12-22T06:59:14.623Z,71.16
2022-12-22T07:01:45.403Z,71.31
2022-12-22T07:04:19.853Z,71.11
2022-12-22T07:06:52.566Z,72.28
2022-12-22T07:09:24.948Z,73.29
2022-12-22T07:11:54.845Z,72.67
2022-12-22T07:14:25.752Z,73.25
2022-12-22T07:16:55.713Z,73.15
2022-12-22T07:19:25.716Z,72.63
2022-12-22T07:21:58.268Z,72.12
2022-12-22T07:24:29.451Z,72.26
2022-12-22T07:26:59.513Z,71.52
2022-12-22T07:29:32.687Z,72.35
2022-12-22T07:32:02.689Z,72.72
2022-12-22T07:34:32.866Z,72.15
2022-12-22T07:37:05.480Z,72.20
2022-12-22T07:39:35.453Z,72.46
2022-12-22T07:42:17.821Z,72.10
2022-12-22T07:44:47.807Z,72.10
2022-12-22T07:47:17.762Z,72.50
2022-12-22T07:50:00.164Z,73.27
2022-12-22T07:52:32.739Z,72.44
2022-12-22T07:55:02.685Z,73.79
2022-12-22T07:57:36.111Z,73.69
2022-12-22T08:00:07.147Z,72.76
2022-12-22T08:02:42.199Z,73.49
2022-12-22T08:05:13.011Z,73.83
2022-12-22T08:07:45.824Z,74.10
2022-12-22T08:10:15.848Z,73.61
2022-12-22T08:12:45.890Z,73.77
2022-12-22T08:15:16.361Z,73.23
2022-12-22T08:17:46.279Z,72.81
2022-12-22T08:20:16.337Z,73.05
2022-12-22T08:22:48.887Z,72.06
2022-12-22T08:25:19.020Z,72.02
2022-12-22T08:27:53.445Z,71.95
2022-12-22T08:30:23.447Z,72.07
2022-12-22T08:32:54.677Z,71.71
2022-12-22T08:35:24.881Z,71.64
2022-12-22T08:37:57.704Z,71.77
2022-12-22T08:40:31.976Z,72.56
2022-12-22T08:43:07.829Z,72.19
2022-12-22T08:45:37.900Z,71.27
2022-12-22T08:48:08.722Z,71.22
2022-12-22T08:50:38.751Z,72.21
2022-12-22T08:53:30.044Z,72.79
2022-12-22T08:56:02.665Z,71.71
2022-12-22T08:58:32.531Z,71.82
2022-12-22T09:01:02.691Z,72.61
2022-12-22T09:03:33.074Z,72.90
2022-12-22T09:06:04.320Z,72.96
2022-12-22T09:08:37.253Z,72.07
2022-12-22T09:11:07.489Z,72.54
2022-12-22T09:13:37.497Z,73.27
2022-12-22T09:16:09.718Z,73.51
2022-12-22T09:18:40.058Z,72.57
2022-12-22T09:21:10.125Z,72.34
2022-12-22T09:23:42.711Z,72.12
2022-12-22T09:26:14.290Z,72.28
2022-12-22T09:28:49.935Z,71.83
2022-12-22T09:31:21.389Z,72.18
2022-12-22T09:33:52.223Z,71.76
2022-12-22T09:36:25.393Z,72.36
2022-12-22T09:38:58.158Z,71.87
2022-12-22T09:41:35.248Z,72.52
2022-12-22T09:44:06.711Z,72.68
2022-12-22T09:46:39.626Z,72.06
2022-12-22T09:49:10.424Z,72.15
2022-12-22T09:51:45.853Z,71.85
2022-12-22T09:54:18.883Z,71.93
2022-12-22T09:56:48.823Z,72.12
2022-12-22T09:59:20.737Z,71.67
2022-12-22T10:02:06.773Z,72.25
2022-12-22T10:04:52.343Z,72.19
2022-12-22T10:07:29.590Z,71.54
2022-12-22T10:10:08.271Z,71.72
2022-12-22T10:12:38.273Z,71.51
2022-12-22T10:15:21.615Z,71.77
2022-12-22T10:17:53.489Z,72.03
2022-12-22T10:20:27.685Z,71.78
2022-12-22T10:23:01.958Z,72.52
2022-12-22T10:28:33.307Z,72.04
2022-12-22T10:31:20.020Z,72.49
2022-12-22T10:33:52.494Z,72.49
2022-12-22T10:36:26.453Z,72.66
2022-12-22T10:39:01.593Z,73.20
2022-12-22T10:41:38.192Z,72.55
2022-12-22T10:44:11.799Z,72.38
2022-12-22T10:46:47.498Z,72.56
2022-12-22T10:49:22.682Z,72.59
2022-12-22T10:51:57.060Z,72.36
2022-12-22T10:54:33.044Z,72.59
2022-12-22T10:57:10.164Z,73.27
2022-12-22T10:59:51.844Z,72.79
2022-12-22T11:02:34.903Z,72.71
2022-12-22T11:05:08.583Z,72.21
2022-12-22T11:07:40.201Z,72.20
2022-12-22T11:10:22.693Z,72.04
2022-12-22T11:13:13.701Z,72.28
2022-12-22T11:15:51.611Z,72.18
2022-12-22T11:18:47.047Z,72.28
2022-12-22T11:21:24.501Z,72.39
2022-12-22T11:24:08.553Z,72.25
2022-12-22T11:26:52.315Z,72.18
2022-12-22T11:29:42.736Z,72.18
2022-12-22T11:32:39.264Z,71.90
2022-12-22T11:35:18.792Z,72.08
2022-12-22T11:37:53.061Z,71.93
2022-12-22T11:40:33.380Z,71.75
2022-12-22T11:43:16.525Z,71.88
2022-12-22T11:45:58.198Z,71.93
2022-12-22T11:49:01.205Z,72.04
2022-12-22T11:51:54.065Z,72.43
2022-12-22T11:54:42.751Z,72.21
2022-12-22T11:57:23.118Z,71.96
2022-12-22T12:00:01.444Z,71.72
2022-12-22T12:03:18.478Z,72.20
2022-12-22T12:06:13.002Z,72.06
2022-12-22T12:08:56.930Z,71.94
2022-12-22T12:11:34.829Z,71.71
2022-12-22T12:14:11.631Z,71.89
2022-12-22T12:16:47.444Z,72.01
2022-12-22T12:19:53.353Z,72.14
2022-12-22T12:22:39.359Z,71.79
2022-12-22T12:25:26.114Z,71.75
2022-12-22T12:28:08.920Z,71.82
2022-12-22T12:30:47.347Z,71.92
2022-12-22T12:33:22.959Z,72.09
2022-12-22T12:36:05.135Z,72.42
2022-12-22T12:41:44.036Z,72.14
2022-12-22T12:44:16.878Z,71.91
2022-12-22T12:46:56.896Z,71.89
2022-12-22T12:50:01.017Z,71.83
2022-12-22T12:53:15.931Z,71.88
2022-12-22T12:56:01.936Z,71.97
2022-12-22T12:58:51.737Z,71.68
2022-12-22T13:01:51.716Z,71.80
2022-12-22T13:04:51.531Z,71.87
2022-12-22T13:07:58.254Z,72.07
2022-12-22T13:10:31.218Z,71.91
2022-12-22T13:13:04.035Z,72.34
2022-12-22T13:15:36.105Z,72.75
2022-12-22T13:18:08.035Z,72.61
2022-12-22T13:20:40.263Z,72.48
2022-12-22T13:23:17.426Z,72.38
2022-12-22T13:25:53.056Z,72.40
2022-12-22T13:28:27.802Z,72.28
2022-12-22T13:31:04.289Z,72.35
2022-12-22T13:33:39.904Z,72.24
2022-12-22T13:36:16.155Z,72.40
2022-12-22T13:38:46.059Z,72.16
2022-12-22T13:41:26.502Z,72.02
2022-12-22T13:44:06.993Z,72.03
2022-12-22T13:46:39.027Z,72.35
2022-12-22T13:49:36.199Z,72.24
2022-12-22T13:52:13.532Z,72.33
2022-12-22T13:54:47.921Z,72.36
2022-12-22T13:57:21.511Z,72.28
2022-12-22T13:59:55.206Z,72.54
2022-12-22T14:02:25.408Z,72.44
2022-12-22T14:05:10.010Z,72.49
2022-12-22T14:07:40.150Z,72.41
2022-12-22T14:10:11.364Z,72.07
2022-12-22T14:12:44.770Z,72.19
2022-12-22T14:15:22.194Z,72.03
2022-12-22T14:17:53.435Z,72.03
2022-12-22T14:20:29.138Z,72.32
2022-12-22T14:23:04.024Z,71.92
2022-12-22T14:25:36.842Z,72.21
2022-12-22T14:28:09.255Z,72.22
2022-12-22T14:30:47.117Z,72.38
2022-12-22T14:33:30.155Z,72.16
2022-12-22T14:36:18.635Z,72.28
2022-12-22T14:38:50.539Z,72.28
2022-12-22T14:41:40.982Z,72.50
2022-12-22T14:44:17.124Z,72.32
2022-12-22T14:47:15.224Z,72.46
2022-12-22T14:49:52.183Z,72.26
2022-12-22T14:52:25.753Z,72.43
2022-12-22T14:54:58.690Z,72.39
2022-12-22T14:57:35.214Z,72.48
2022-12-22T15:00:09.143Z,72.54
2022-12-22T15:02:54.260Z,72.66
2022-12-22T15:05:31.386Z,72.45
2022-12-22T15:08:06.219Z,72.57
2022-12-22T15:10:42.082Z,72.76
2022-12-22T15:13:19.100Z,72.57
2022-12-22T15:15:49.051Z,72.67
2022-12-22T15:18:26.748Z,72.60
2022-12-22T15:20:57.665Z,72.57
2022-12-22T15:23:27.704Z,72.48
2022-12-22T15:26:00.112Z,72.14
2022-12-22T15:28:30.056Z,72.25
2022-12-22T15:31:01.219Z,72.40
2022-12-22T15:33:34.152Z,72.16
2022-12-22T15:36:04.104Z,72.16
2022-12-22T15:38:38.682Z,72.27
2022-12-22T15:41:10.416Z,72.35
2022-12-22T15:43:58.342Z,72.18
2022-12-22T15:46:32.282Z,72.36
2022-12-22T15:49:05.264Z,72.21
2022-12-22T15:51:35.567Z,72.17
2022-12-22T15:54:06.815Z,72.22
2022-12-22T15:56:36.802Z,72.12
2022-12-22T15:59:06.841Z,72.22
2022-12-22T16:01:36.859Z,72.10
2022-12-22T16:04:09.616Z,72.34
2022-12-22T16:06:44.676Z,72.18
2022-12-22T16:09:23.568Z,72.39
2022-12-22T16:11:53.572Z,72.19
2022-12-22T16:14:25.180Z,72.06
2022-12-22T16:16:56.484Z,72.09
2022-12-22T16:19:29.042Z,72.07
2022-12-22T16:21:59.008Z,72.08
2022-12-22T16:24:32.055Z,72.07
2022-12-22T16:27:02.856Z,71.93
2022-12-22T16:29:33.355Z,71.89
2022-12-22T16:32:18.416Z,71.84
2022-12-22T16:34:51.486Z,71.48
2022-12-22T16:37:21.547Z,71.40
2022-12-22T16:39:51.494Z,71.22
2022-12-22T16:45:08.100Z,71.12
2022-12-22T16:47:39.409Z,70.88
2022-12-22T16:50:20.002Z,70.80
2022-12-22T16:52:51.058Z,70.46
2022-12-22T16:55:22.985Z,70.54
2022-12-22T16:57:52.911Z,70.51
2022-12-22T17:00:24.578Z,70.14
2022-12-22T17:02:58.172Z,70.13
2022-12-22T17:05:40.316Z,70.03
2022-12-22T17:08:23.559Z,69.91
2022-12-22T17:10:54.845Z,69.77
2022-12-22T17:13:25.843Z,69.66
2022-12-22T17:15:56.025Z,69.59
2022-12-22T17:18:28.726Z,69.43
2022-12-22T17:21:04.365Z,69.83
2022-12-22T17:23:37.751Z,69.60
2022-12-22T17:26:12.740Z,69.46
2022-12-22T17:28:43.645Z,69.34
2022-12-22T17:31:18.227Z,69.38
2022-12-22T17:33:48.524Z,69.44
2022-12-22T17:36:31.455Z,69.34
2022-12-22T17:39:02.533Z,69.35
2022-12-22T17:41:32.941Z,69.12
2022-12-22T17:44:03.017Z,68.94
2022-12-22T17:46:33.011Z,68.71
2022-12-22T17:49:03.307Z,68.49
2022-12-22T17:51:35.961Z,68.59
2022-12-22T17:54:06.403Z,68.53
2022-12-22T17:56:36.304Z,68.18
2022-12-22T17:59:06.417Z,68.20
2022-12-22T18:01:39.299Z,68.14
2022-12-22T18:04:10.207Z,67.92
2022-12-22T18:06:45.233Z,68.16
2022-12-22T18:09:23.458Z,68.06
2022-12-22T18:11:53.769Z,68.10
2022-12-22T18:14:24.916Z,68.23
2022-12-22T18:16:54.828Z,68.47
2022-12-22T18:19:24.770Z,68.30
2022-12-22T18:21:57.305Z,68.18
2022-12-22T18:24:27.245Z,68.21
2022-12-22T18:26:57.411Z,68.49
2022-12-22T18:29:27.642Z,68.08
2022-12-22T18:31:57.674Z,67.99
2022-12-22T18:34:27.655Z,68.09
2022-12-22T18:37:00.340Z,68.42
2022-12-22T18:39:30.556Z,68.30
2022-12-22T18:42:00.739Z,68.23
2022-12-22T18:44:30.767Z,68.09
2022-12-22T18:47:00.923Z,67.86
2022-12-22T18:49:31.051Z,67.95
2022-12-22T18:52:03.653Z,67.93
2022-12-22T18:54:37.029Z,67.66
2022-12-22T18:57:07.314Z,67.59
2022-12-22T18:59:38.252Z,67.55
2022-12-22T19:02:23.450Z,67.57
2022-12-22T19:04:54.123Z,67.21
2022-12-22T19:07:28.139Z,67.02
2022-12-22T19:09:58.183Z,67.12
2022-12-22T19:12:30.541Z,67.03
2022-12-22T19:15:05.997Z,67.38
2022-12-22T19:17:36.045Z,67.03
2022-12-22T19:20:06.818Z,67.09
2022-12-22T19:22:39.511Z,67.01
2022-12-22T19:25:10.225Z,67.17
2022-12-22T19:27:40.890Z,67.02
2022-12-22T19:30:18.717Z,66.96
2022-12-22T19:32:52.027Z,66.80
2022-12-22T19:35:24.474Z,67.02
2022-12-22T19:37:57.530Z,66.77
2022-12-22T19:40:32.766Z,66.64
2022-12-22T19:43:02.909Z,66.37
2022-12-22T19:45:36.904Z,66.11
2022-12-22T19:48:08.150Z,66.20
2022-12-22T19:50:38.266Z,66.56
2022-12-22T19:53:12.872Z,66.30
2022-12-22T19:55:46.228Z,66.37
2022-12-22T19:58:23.009Z,66.54
2022-12-22T20:00:53.289Z,66.29
2022-12-22T20:03:25.398Z,66.29
2022-12-22T20:05:56.096Z,66.14
2022-12-22T20:08:28.678Z,66.13
2022-12-22T20:10:59.372Z,66.21
2022-12-22T20:13:34.217Z,66.11
2022-12-22T20:16:04.322Z,65.95
2022-12-22T20:18:34.325Z,65.99
2022-12-22T20:21:07.629Z,65.92
2022-12-22T20:23:41.078Z,65.74
2022-12-22T20:26:16.820Z,65.76
2022-12-22T20:28:46.794Z,65.98
2022-12-22T20:31:19.118Z,65.90
2022-12-22T20:33:49.690Z,66.19
2022-12-22T20:36:24.624Z,66.14
2022-12-22T20:38:59.883Z,66.12
2022-12-22T20:41:32.224Z,66.36
2022-12-22T20:44:02.178Z,66.51
2022-12-22T20:46:32.777Z,66.55
2022-12-22T20:49:04.889Z,66.75
2022-12-22T20:51:36.581Z,66.53
2022-12-22T20:54:09.563Z,66.76
2022-12-22T20:56:41.251Z,66.95
2022-12-22T20:59:16.701Z,66.66
2022-12-22T21:01:46.909Z,66.86
2022-12-22T21:04:17.067Z,66.68
2022-12-22T21:06:50.121Z,66.59
2022-12-22T21:09:23.233Z,66.68
2022-12-22T21:11:53.319Z,66.55
2022-12-22T21:14:23.217Z,66.57
2022-12-22T21:16:53.671Z,66.56
2022-12-22T21:19:26.792Z,66.50
2022-12-22T21:21:56.758Z,66.37
2022-12-22T21:24:29.386Z,65.99
2022-12-22T21:26:59.411Z,65.88
2022-12-22T21:29:30.279Z,65.82
2022-12-22T21:32:00.290Z,66.11
2022-12-22T21:34:30.300Z,66.15
2022-12-22T21:37:03.826Z,66.26
2022-12-22T21:39:42.611Z,66.25
2022-12-22T21:42:17.260Z,66.46
2022-12-22T21:44:47.699Z,66.50
2022-12-22T21:47:21.205Z,66.34
2022-12-22T21:49:51.879Z,66.58
2022-12-22T21:52:25.340Z,66.83
2022-12-22T21:54:57.852Z,66.76
2022-12-22T21:57:28.661Z,67.11
2022-12-22T21:59:58.791Z,67.41
2022-12-22T22:02:28.988Z,67.59
2022-12-22T22:05:10.397Z,67.50
2022-12-22T22:07:40.488Z,67.59
2022-12-22T22:10:14.218Z,67.22
2022-12-22T22:12:44.242Z,67.03
2022-12-22T22:15:16.120Z,66.78
2022-12-22T22:17:46.491Z,66.65
2022-12-22T22:20:18.514Z,66.36
2022-12-22T22:22:49.509Z,66.48
2022-12-22T22:25:23.138Z,66.55
2022-12-22T22:27:53.742Z,66.56
2022-12-22T22:30:26.608Z,66.38
2022-12-22T22:32:57.180Z,66.43
2022-12-22T22:35:27.890Z,66.43
2022-12-22T22:37:57.912Z,66.11
2022-12-22T22:40:30.480Z,66.24
2022-12-22T22:43:00.417Z,66.51
2022-12-22T22:45:30.361Z,66.58
2022-12-22T22:48:09.572Z,66.45
2022-12-22T22:50:43.419Z,66.47
2022-12-22T22:53:22.561Z,66.32
2022-12-22T22:55:55.117Z,66.63
2022-12-22T22:58:25.061Z,66.35
2022-12-22T23:00:55.037Z,66.04
2022-12-22T23:03:25.825Z,66.12
2022-12-22T23:06:03.937Z,66.28
2022-12-22T23:08:34.173Z,65.78
2022-12-22T23:11:08.308Z,65.79
2022-12-22T23:13:38.286Z,65.79
2022-12-22T23:16:08.838Z,65.77
2022-12-22T23:18:39.008Z,65.81
2022-12-22T23:21:10.404Z,65.69
2022-12-22T23:23:40.546Z,65.69
2022-12-22T23:26:13.467Z,65.89
2022-12-22T23:28:43.459Z,65.95
2022-12-22T23:31:16.293Z,66.02
2022-12-22T23:33:46.246Z,66.08
2022-12-22T23:36:16.317Z,66.20
2022-12-22T23:38:46.602Z,66.30
2022-12-22T23:41:19.356Z,66.93
2022-12-22T23:43:49.571Z,66.28
2022-12-22T23:46:20.619Z,66.28
2022-12-22T23:48:54.710Z,66.29
2022-12-22T23:51:26.692Z,66.35
2022-12-22T23:53:57.235Z,66.14
2022-12-22T23:56:30.039Z,66.01
2022-12-22T23:59:00.154Z,65.81
